Terminal Aerodrome Forecast
Issued by NWS Pueblo, CO

Home | Current Version | Previous Version | Text Only | Print | Product List | Glossary On
Versions: 1 2 3 4 5 6 7 8 9 10 11 12 13 14 15 16
000
FTUS45 KPUB 260752 AAA
TAFALS
TAF AMD
KALS 260752Z 2608/2706 VRB06KT P6SM SCT060 BKN090
     FM262100 36012KT P6SM VCTS SCT080CB SCT100 BKN150=

USA.gov is the U.S. government's official web portal to all federal, state and local government web resources and services.